Buoy 54955

sailwx.info

Track history (hours):
 
Tides and Currents Weather Stations Pressure Air Temp Water Temp Dewpoint Dewpoint Depression Visibility Wind Speed Wind Dir Waves Ship Positions

Drifting buoy 54955

Last reported at 2018-Apr-19 19:00 UTC. Time now 2018-Apr-20 01:12 UTC.
Position S 34°27' W 142°25'.

Barometer 1020.2 mb
Water temperature 21.0 ° C

Date/timePositionNaut miles runAvg speedWind from/ knotsBaromVisibWave heightAir tempDewpointWater temp
2018-Apr-19 19:00S 34°27' W 142°25'0 0.0 1020.2 21.0
2018-Apr-19 18:00S 34°27' W 142°25'0 0.0 1020.2 21.0
2018-Apr-19 17:00S 34°27' W 142°25'1 0.6 1019.8 20.9
2018-Apr-19 16:00S 34°28' W 142°25'1 1.2 1019.1 20.9
2018-Apr-19 15:00S 34°27' W 142°23'0 0.5 1018.9 21.0
2018-Apr-19 14:00S 34°27' W 142°23'0 0.5 1018.6 21.0
2018-Apr-19 13:00S 34°27' W 142°22'0 0.0 1018.3 21.1
2018-Apr-19 12:00S 34°27' W 142°22'0 0.0 1018.5 21.1
2018-Apr-19 11:00S 34°27' W 142°22'2 0.6 1018.8 21.0
2018-Apr-19 07:00S 34°29' W 142°20'2 1.6 1019.0 21.1
2018-Apr-19 06:00S 34°29' W 142°19'1 1.0 1018.8 21.1
2018-Apr-19 05:00S 34°29' W 142°20'1 1.2 1018.5 21.1
2018-Apr-19 04:00S 34°31' W 142°20'0 0.0 1018.0 21.1
2018-Apr-19 03:00S 34°31' W 142°20'0 0.5 1017.5 21.4
2018-Apr-19 02:00S 34°31' W 142°20'0 0.0 1016.8 21.5
2018-Apr-19 01:00S 34°31' W 142°20'1 1.2 1016.4 21.6
2018-Apr-19 00:00S 34°30' W 142°22'0 0.0 1015.9 21.5
2018-Apr-18 20:00S 34°30' W 142°22'1 1.5 1017.0 20.8
2018-Apr-18 19:00S 34°30' W 142°20'1 1.5 1017.3 20.8
2018-Apr-18 18:00S 34°30' W 142°22'1 0.8 1017.2 20.7
2018-Apr-18 17:00S 34°29' W 142°21'1 0.6 1017.0 20.7
2018-Apr-18 16:00S 34°29' W 142°21'0 0.5 1016.5 20.7
2018-Apr-18 15:00S 34°29' W 142°22'2 1.6 1016.2 20.7
2018-Apr-18 14:00S 34°28' W 142°20'0 0.5 1015.9 20.7
2018-Apr-18 13:00S 34°28' W 142°19'1 0.8 1015.6 20.7
2018-Apr-18 12:00S 34°29' W 142°19'0 0.0 1015.9 20.7
2018-Apr-18 11:00S 34°29' W 142°19'1 1.2 1016.4 20.7
2018-Apr-18 10:00S 34°29' W 142°17'0 0.0 1016.8 20.7
2018-Apr-18 08:00S 34°29' W 142°17'1 1.2 1016.8 20.8
2018-Apr-18 07:00S 34°31' W 142°17'0 0.0 1017.1 20.8
2018-Apr-18 06:00S 34°31' W 142°17'0 0.0 1016.7 20.8
2018-Apr-18 05:00S 34°31' W 142°17'1 1.0 1016.4 20.8
2018-Apr-18 04:00S 34°31' W 142°19'1 1.2 1016.1 20.8
2018-Apr-18 03:00S 34°31' W 142°17'0 0.0 1015.6 20.8
2018-Apr-18 02:00S 34°31' W 142°17'1 1.0 1015.6 20.8
2018-Apr-18 01:00S 34°31' W 142°19'0 0.0 1015.4 20.9
2018-Apr-18 00:00S 34°31' W 142°19'1 0.2 1015.3 20.9
2018-Apr-17 19:00S 34°31' W 142°19'1 0.8 1018.4 20.8
2018-Apr-17 18:00S 34°30' W 142°20'0 0.0 1018.5 20.8
2018-Apr-17 17:00S 34°30' W 142°20'1 1.2 1018.2 20.8
2018-Apr-17 16:00S 34°29' W 142°21'0 0.5 1018.2 20.8
2018-Apr-17 15:00S 34°29' W 142°20'1 1.0 1017.3 20.8
2018-Apr-17 14:00S 34°29' W 142°19'2 1.6 1017.4 20.8
2018-Apr-17 13:00S 34°28' W 142°20'0 0.0 1017.3 20.8
2018-Apr-17 12:00S 34°28' W 142°20'1 0.6 1017.5 20.8
2018-Apr-17 10:00S 34°29' W 142°20'0 0.0 1017.5 20.9
2018-Apr-17 08:00S 34°29' W 142°20'1 0.6 1017.5 20.8
2018-Apr-17 07:00S 34°30' W 142°20'1 0.6 1017.4 20.9
2018-Apr-17 06:00S 34°31' W 142°20'1 0.8 1017.3 20.9
2018-Apr-17 05:00S 34°31' W 142°21'1 1.0 1016.8 20.9
2018-Apr-17 04:00S 34°31' W 142°22'1 0.6 1016.3 20.9
2018-Apr-17 03:00S 34°32' W 142°22'1 1.5 1015.8 20.9
2018-Apr-17 02:00S 34°32' W 142°24'0 0.0 1015.1 20.9
2018-Apr-17 01:00S 34°32' W 142°24'0 0.0 1015.1 20.9
2018-Apr-17 00:00S 34°32' W 142°24'3 0.6 1014.9 20.9
2018-Apr-16 19:00S 34°31' W 142°28'2 1.6 1016.3 20.9
2018-Apr-16 18:00S 34°30' W 142°29'0 0.5 1015.9 20.9
2018-Apr-16 17:00S 34°30' W 142°30'0 0.0 1015.8 20.9
2018-Apr-16 16:00S 34°30' W 142°30'1 0.6 1015.9 20.9
2018-Apr-16 15:00S 34°29' W 142°30'1 0.6 1015.5 20.9
2018-Apr-16 14:00S 34°30' W 142°30'1 1.3 1015.3 20.9
2018-Apr-16 13:00S 34°29' W 142°29'1 1.0 1015.6 20.9
2018-Apr-16 12:00S 34°29' W 142°31'1 0.4 1016.3 20.9
2018-Apr-16 10:00S 34°28' W 142°31'0 0.0 1017.3 20.9
2018-Apr-16 08:00S 34°28' W 142°31'1 0.7 1018.3 20.9
2018-Apr-16 06:00S 34°28' W 142°33'0 0.5 1019.5 20.9
2018-Apr-16 05:00S 34°28' W 142°34'1 0.8 1019.0 20.9
2018-Apr-16 04:00S 34°28' W 142°34'0 0.0 1018.9 20.9
2018-Apr-16 03:00S 34°28' W 142°34'1 1.5 1018.9 20.9
2018-Apr-16 02:00S 34°28' W 142°36'0 0.5 1018.7 21.0
2018-Apr-16 01:00S 34°28' W 142°37'3 1.5 1018.6 21.0
2018-Apr-15 23:00S 34°25' W 142°36'0 0.0 1019.0 21.0
2018-Apr-15 19:00S 34°25' W 142°36'1 0.6 1019.9 20.9
2018-Apr-15 18:00S 34°24' W 142°36'1 0.8 1019.7 20.9
2018-Apr-15 17:00S 34°25' W 142°35'2 1.6 1019.4 20.9
2018-Apr-15 16:00S 34°23' W 142°37'0 0.5 1019.0 20.9
2018-Apr-15 15:00S 34°23' W 142°36'0 0.0 1018.7 20.9
2018-Apr-15 14:00S 34°23' W 142°36'0 0.5 1018.3 20.9
2018-Apr-15 13:00S 34°23' W 142°35'1 1.2 1018.6 20.9
2018-Apr-15 12:00S 34°23' W 142°37'0 0.0 1018.7 20.9
2018-Apr-15 11:00S 34°23' W 142°37'0 0.0 1018.9 20.9
2018-Apr-15 10:00S 34°23' W 142°37'1 0.6 1018.7 20.9
2018-Apr-15 08:00S 34°22' W 142°37'0 0.0 1019.1 20.9
2018-Apr-15 07:00S 34°22' W 142°37'1 0.8 1019.1 20.9
2018-Apr-15 06:00S 34°22' W 142°36'1 0.8 1019.4 20.9
2018-Apr-15 05:00S 34°22' W 142°37'0 0.5 1019.1 20.9
2018-Apr-15 04:00S 34°22' W 142°37'1 1.3 1018.7 20.9
2018-Apr-15 03:00S 34°20' W 142°38'0 0.5 1018.6 20.9
2018-Apr-15 02:00S 34°20' W 142°37'1 1.3 1018.5 20.9
2018-Apr-15 01:00S 34°19' W 142°38'0 0.0 1018.1 20.9
2018-Apr-15 00:00S 34°19' W 142°38'0 0.0 1018.1 20.9
2018-Apr-14 23:00S 34°19' W 142°38'4 0.8 1018.7 20.9
2018-Apr-14 18:00S 34°16' W 142°36'1 0.8 1019.1 20.8
2018-Apr-14 17:00S 34°15' W 142°35'0 0.0 1019.1 20.8
2018-Apr-14 16:00S 34°15' W 142°35'1 0.8 1019.4 20.8
2018-Apr-14 15:00S 34°14' W 142°35'0 0.0 1019.0 20.8
2018-Apr-14 14:00S 34°14' W 142°35'0 0.0 1018.9 20.8
2018-Apr-14 13:00S 34°14' W 142°35'0 0.0 1019.0 20.8
2018-Apr-14 12:00S 34°14' W 142°35'0 0.0 1018.5 20.8
2018-Apr-14 11:00S 34°14' W 142°35'1 0.4 1018.8 20.8
2018-Apr-14 08:00S 34°14' W 142°36'1 0.8 1018.8 20.8
2018-Apr-14 07:00S 34°13' W 142°35'0 0.0 1019.0 20.8
2018-Apr-14 06:00S 34°13' W 142°35'1 0.6 1019.1 20.8
2018-Apr-14 05:00S 34°13' W 142°35'1 0.6 1018.3 20.9
2018-Apr-14 04:00S 34°12' W 142°35'0 0.5 1018.0 20.9
2018-Apr-14 03:00S 34°12' W 142°35'1 0.8 1017.6 20.9
2018-Apr-14 02:00S 34°11' W 142°34'1 0.8 1017.1 20.9
2018-Apr-14 01:00S 34°11' W 142°34'3 3.5 1016.7 21.0
2018-Apr-14 00:00S 34°09' W 142°30'0 0.0 1016.5 21.0
2018-Apr-13 23:00S 34°09' W 142°30'1 0.2 1016.8 21.0
2018-Apr-13 19:00S 34°10' W 142°29'0 0.5 1018.1 20.9
2018-Apr-13 18:00S 34°10' W 142°29'0 0.5 1017.9 20.8
2018-Apr-13 17:00S 34°10' W 142°28'0 0.5 1017.5 20.8
2018-Apr-13 16:00S 34°10' W 142°28'1 1.2 1017.0 20.8
2018-Apr-13 15:00S 34°10' W 142°26'1 0.6 1016.6 20.8
2018-Apr-13 14:00S 34°10' W 142°26'0 0.0 1016.9 20.8
2018-Apr-13 13:00S 34°10' W 142°26'1 1.0 1016.7 20.7
2018-Apr-13 12:00S 34°10' W 142°25'1 0.8 1017.4 20.6
2018-Apr-13 11:00S 34°09' W 142°26'3 1.0 1017.9 20.6
2018-Apr-13 08:00S 34°10' W 142°22'1 1.5 1019.1 20.7
2018-Apr-13 07:00S 34°10' W 142°20'0 0.5 1019.7 20.7
2018-Apr-13 06:00S 34°10' W 142°20'0 0.5 1020.2 20.7
2018-Apr-13 05:00S 34°10' W 142°19'3 2.6 1020.6 20.7
2018-Apr-13 04:00S 34°09' W 142°16'0 0.0 1020.2 20.7
2018-Apr-13 03:00S 34°09' W 142°16'2 2.0 1020.1 20.7
2018-Apr-13 02:00S 34°09' W 142°14'0 0.0 1019.8 20.7
2018-Apr-13 01:00S 34°09' W 142°14'0 0.5 1019.8 20.7
2018-Apr-13 00:00S 34°09' W 142°13'0 0.0 1020.4 20.7
2018-Apr-12 23:00S 34°09' W 142°13'7 1.4 1020.8 20.7
2018-Apr-12 18:00S 34°10' W 142°05'1 1.2 1022.6 20.7
2018-Apr-12 17:00S 34°11' W 142°05'2 2.0 1022.6 20.7
2018-Apr-12 16:00S 34°11' W 142°02'1 1.5 1022.4 20.7
2018-Apr-12 15:00S 34°11' W 142°04'2 2.5 1021.8 20.8
2018-Apr-12 14:00S 34°11' W 142°01'0 0.0 1021.3 20.8
2018-Apr-12 13:00S 34°11' W 142°01'5 4.6 1021.0 20.9
2018-Apr-12 12:00S 34°12' W 141°56'0 0.0 1020.8 20.9
2018-Apr-12 11:00S 34°12' W 141°56'1 0.4 1021.0 20.9
2018-Apr-12 08:00S 34°11' W 141°55'0 0.0 1021.1 21.0
2018-Apr-12 07:00S 34°11' W 141°55'1 1.2 1021.1 21.0
2018-Apr-12 06:00S 34°12' W 141°53'1 0.8 1021.2 21.0
2018-Apr-12 05:00S 34°11' W 141°53'3 2.6 1020.7 21.1
2018-Apr-12 04:00S 34°12' W 141°50'0 0.0 1020.4 21.1
2018-Apr-12 03:00S 34°12' W 141°50'2 2.1 1020.0 21.1
2018-Apr-12 02:00S 34°13' W 141°47'0 0.0 1019.6 21.1
2018-Apr-12 01:00S 34°13' W 141°47'0 0.5 1018.6 21.1
2018-Apr-12 00:00S 34°13' W 141°48'8 1.4 1018.7 21.0
2018-Apr-11 18:00S 34°13' W 141°38'3 2.8 1018.5 20.7
2018-Apr-11 17:00S 34°14' W 141°35'0 0.0 1018.1 20.7
2018-Apr-11 16:00S 34°14' W 141°35'3 2.6 1018.0 20.7
2018-Apr-11 15:00S 34°15' W 141°32'2 2.1 1017.0 20.7
2018-Apr-11 14:00S 34°17' W 141°31'0 0.0 1016.1 20.8
2018-Apr-11 13:00S 34°17' W 141°31'0 0.5 1016.1 20.8
2018-Apr-11 12:00S 34°17' W 141°30'4 4.3 1016.1 20.8
2018-Apr-11 11:00S 34°21' W 141°29'1 0.4 1014.6 20.9
2018-Apr-11 08:00S 34°20' W 141°28'2 1.9 1016.3 20.9
2018-Apr-11 07:00S 34°22' W 141°27'0 0.0 1016.1 20.9
2018-Apr-11 06:00S 34°22' W 141°27'1 1.0 1015.9 20.9
2018-Apr-11 05:00S 34°22' W 141°26'1 1.3 1015.2 20.9
2018-Apr-11 04:00S 34°23' W 141°26'1 0.6 1014.7 20.9
2018-Apr-11 03:00S 34°24' W 141°26'1 0.8 1014.2 20.9
2018-Apr-11 02:00S 34°25' W 141°26'1 1.2 1014.1 20.9
2018-Apr-11 01:00S 34°25' W 141°27'1 0.6 1014.2 21.0
2018-Apr-11 00:00S 34°25' W 141°27'4 0.7 1014.4 21.0
2018-Apr-10 19:00S 34°28' W 141°27'1 0.8 1016.5 21.0
2018-Apr-10 18:00S 34°29' W 141°28'1 0.6 1017.0 21.0
2018-Apr-10 17:00S 34°29' W 141°28'0 0.0 1016.8 21.0
2018-Apr-10 16:00S 34°29' W 141°28'1 1.3 1016.5 21.0
2018-Apr-10 15:00S 34°31' W 141°27'0 0.5 1016.1 21.0
2018-Apr-10 14:00S 34°31' W 141°28'1 1.2 1016.0 21.0
2018-Apr-10 13:00S 34°32' W 141°28'4 3.6 1015.9 21.0
2018-Apr-10 12:00S 34°35' W 141°30'0 0.0 1015.8 21.0
2018-Apr-10 11:00S 34°35' W 141°30'0 0.0 1015.9 21.0
2018-Apr-10 08:00S 34°35' W 141°30'0 0.0 1016.0 21.0
2018-Apr-10 07:00S 34°35' W 141°30'0 0.2 1016.4 21.1
2018-Apr-10 05:00S 34°35' W 141°31'1 1.0 1015.6 21.1
2018-Apr-10 04:00S 34°35' W 141°32'1 1.3 1015.0 21.1
2018-Apr-10 03:00S 34°36' W 141°31'0 0.5 1014.3 21.1
2018-Apr-10 02:00S 34°36' W 141°31'1 0.8 1013.7 21.2
2018-Apr-10 01:00S 34°37' W 141°31'2 2.4 1013.4 21.2
2018-Apr-10 00:00S 34°39' W 141°31'0 0.0 1013.2 21.2
2018-Apr-09 20:00S 34°39' W 141°31'0 0.0 1013.9 21.0
2018-Apr-09 19:00S 34°39' W 141°31'   1013.6 21.0
Track history (hours):
 
Tides and Currents Weather Stations Pressure Air Temp Water Temp Dewpoint Dewpoint Depression Visibility Wind Speed Wind Dir Waves Ship Positions

Drifting buoy 54955

Last reported at 2018-Apr-19 19:00 UTC. Time now 2018-Apr-20 01:12 UTC.
Position S 34°27' W 142°25'.

Barometer 1020.2 mb
Water temperature 21.0 ° C

Date/timePositionNaut miles runAvg speedWind from/ knotsBaromVisibWave heightAir tempDewpointWater temp
2018-Apr-19 19:00S 34°27' W 142°25'0 0.0 1020.2 21.0
2018-Apr-19 18:00S 34°27' W 142°25'0 0.0 1020.2 21.0
2018-Apr-19 17:00S 34°27' W 142°25'1 0.6 1019.8 20.9
2018-Apr-19 16:00S 34°28' W 142°25'1 1.2 1019.1 20.9
2018-Apr-19 15:00S 34°27' W 142°23'0 0.5 1018.9 21.0
2018-Apr-19 14:00S 34°27' W 142°23'0 0.5 1018.6 21.0
2018-Apr-19 13:00S 34°27' W 142°22'0 0.0 1018.3 21.1
2018-Apr-19 12:00S 34°27' W 142°22'0 0.0 1018.5 21.1
2018-Apr-19 11:00S 34°27' W 142°22'2 0.6 1018.8 21.0
2018-Apr-19 07:00S 34°29' W 142°20'2 1.6 1019.0 21.1
2018-Apr-19 06:00S 34°29' W 142°19'1 1.0 1018.8 21.1
2018-Apr-19 05:00S 34°29' W 142°20'1 1.2 1018.5 21.1
2018-Apr-19 04:00S 34°31' W 142°20'0 0.0 1018.0 21.1
2018-Apr-19 03:00S 34°31' W 142°20'0 0.5 1017.5 21.4
2018-Apr-19 02:00S 34°31' W 142°20'0 0.0 1016.8 21.5
2018-Apr-19 01:00S 34°31' W 142°20'1 1.2 1016.4 21.6
2018-Apr-19 00:00S 34°30' W 142°22'0 0.0 1015.9 21.5
2018-Apr-18 20:00S 34°30' W 142°22'1 1.5 1017.0 20.8
2018-Apr-18 19:00S 34°30' W 142°20'1 1.5 1017.3 20.8
2018-Apr-18 18:00S 34°30' W 142°22'1 0.8 1017.2 20.7
2018-Apr-18 17:00S 34°29' W 142°21'1 0.6 1017.0 20.7
2018-Apr-18 16:00S 34°29' W 142°21'0 0.5 1016.5 20.7
2018-Apr-18 15:00S 34°29' W 142°22'2 1.6 1016.2 20.7
2018-Apr-18 14:00S 34°28' W 142°20'0 0.5 1015.9 20.7
2018-Apr-18 13:00S 34°28' W 142°19'1 0.8 1015.6 20.7
2018-Apr-18 12:00S 34°29' W 142°19'0 0.0 1015.9 20.7
2018-Apr-18 11:00S 34°29' W 142°19'1 1.2 1016.4 20.7
2018-Apr-18 10:00S 34°29' W 142°17'0 0.0 1016.8 20.7
2018-Apr-18 08:00S 34°29' W 142°17'1 1.2 1016.8 20.8
2018-Apr-18 07:00S 34°31' W 142°17'0 0.0 1017.1 20.8
2018-Apr-18 06:00S 34°31' W 142°17'0 0.0 1016.7 20.8
2018-Apr-18 05:00S 34°31' W 142°17'1 1.0 1016.4 20.8
2018-Apr-18 04:00S 34°31' W 142°19'1 1.2 1016.1 20.8
2018-Apr-18 03:00S 34°31' W 142°17'0 0.0 1015.6 20.8
2018-Apr-18 02:00S 34°31' W 142°17'1 1.0 1015.6 20.8
2018-Apr-18 01:00S 34°31' W 142°19'0 0.0 1015.4 20.9
2018-Apr-18 00:00S 34°31' W 142°19'1 0.2 1015.3 20.9
2018-Apr-17 19:00S 34°31' W 142°19'1 0.8 1018.4 20.8
2018-Apr-17 18:00S 34°30' W 142°20'0 0.0 1018.5 20.8
2018-Apr-17 17:00S 34°30' W 142°20'1 1.2 1018.2 20.8
2018-Apr-17 16:00S 34°29' W 142°21'0 0.5 1018.2 20.8
2018-Apr-17 15:00S 34°29' W 142°20'1 1.0 1017.3 20.8
2018-Apr-17 14:00S 34°29' W 142°19'2 1.6 1017.4 20.8
2018-Apr-17 13:00S 34°28' W 142°20'0 0.0 1017.3 20.8
2018-Apr-17 12:00S 34°28' W 142°20'1 0.6 1017.5 20.8
2018-Apr-17 10:00S 34°29' W 142°20'0 0.0 1017.5 20.9
2018-Apr-17 08:00S 34°29' W 142°20'1 0.6 1017.5 20.8
2018-Apr-17 07:00S 34°30' W 142°20'1 0.6 1017.4 20.9
2018-Apr-17 06:00S 34°31' W 142°20'1 0.8 1017.3 20.9
2018-Apr-17 05:00S 34°31' W 142°21'1 1.0 1016.8 20.9
2018-Apr-17 04:00S 34°31' W 142°22'1 0.6 1016.3 20.9
2018-Apr-17 03:00S 34°32' W 142°22'1 1.5 1015.8 20.9
2018-Apr-17 02:00S 34°32' W 142°24'0 0.0 1015.1 20.9
2018-Apr-17 01:00S 34°32' W 142°24'0 0.0 1015.1 20.9
2018-Apr-17 00:00S 34°32' W 142°24'3 0.6 1014.9 20.9
2018-Apr-16 19:00S 34°31' W 142°28'2 1.6 1016.3 20.9
2018-Apr-16 18:00S 34°30' W 142°29'0 0.5 1015.9 20.9
2018-Apr-16 17:00S 34°30' W 142°30'0 0.0 1015.8 20.9
2018-Apr-16 16:00S 34°30' W 142°30'1 0.6 1015.9 20.9
2018-Apr-16 15:00S 34°29' W 142°30'1 0.6 1015.5 20.9
2018-Apr-16 14:00S 34°30' W 142°30'1 1.3 1015.3 20.9
2018-Apr-16 13:00S 34°29' W 142°29'1 1.0 1015.6 20.9
2018-Apr-16 12:00S 34°29' W 142°31'1 0.4 1016.3 20.9
2018-Apr-16 10:00S 34°28' W 142°31'0 0.0 1017.3 20.9
2018-Apr-16 08:00S 34°28' W 142°31'1 0.7 1018.3 20.9
2018-Apr-16 06:00S 34°28' W 142°33'0 0.5 1019.5 20.9
2018-Apr-16 05:00S 34°28' W 142°34'1 0.8 1019.0 20.9
2018-Apr-16 04:00S 34°28' W 142°34'0 0.0 1018.9 20.9
2018-Apr-16 03:00S 34°28' W 142°34'1 1.5 1018.9 20.9
2018-Apr-16 02:00S 34°28' W 142°36'0 0.5 1018.7 21.0
2018-Apr-16 01:00S 34°28' W 142°37'3 1.5 1018.6 21.0
2018-Apr-15 23:00S 34°25' W 142°36'0 0.0 1019.0 21.0
2018-Apr-15 19:00S 34°25' W 142°36'1 0.6 1019.9 20.9
2018-Apr-15 18:00S 34°24' W 142°36'1 0.8 1019.7 20.9
2018-Apr-15 17:00S 34°25' W 142°35'2 1.6 1019.4 20.9
2018-Apr-15 16:00S 34°23' W 142°37'0 0.5 1019.0 20.9
2018-Apr-15 15:00S 34°23' W 142°36'0 0.0 1018.7 20.9
2018-Apr-15 14:00S 34°23' W 142°36'0 0.5 1018.3 20.9
2018-Apr-15 13:00S 34°23' W 142°35'1 1.2 1018.6 20.9
2018-Apr-15 12:00S 34°23' W 142°37'0 0.0 1018.7 20.9
2018-Apr-15 11:00S 34°23' W 142°37'0 0.0 1018.9 20.9
2018-Apr-15 10:00S 34°23' W 142°37'1 0.6 1018.7 20.9
2018-Apr-15 08:00S 34°22' W 142°37'0 0.0 1019.1 20.9
2018-Apr-15 07:00S 34°22' W 142°37'1 0.8 1019.1 20.9
2018-Apr-15 06:00S 34°22' W 142°36'1 0.8 1019.4 20.9
2018-Apr-15 05:00S 34°22' W 142°37'0 0.5 1019.1 20.9
2018-Apr-15 04:00S 34°22' W 142°37'1 1.3 1018.7 20.9
2018-Apr-15 03:00S 34°20' W 142°38'0 0.5 1018.6 20.9
2018-Apr-15 02:00S 34°20' W 142°37'1 1.3 1018.5 20.9
2018-Apr-15 01:00S 34°19' W 142°38'0 0.0 1018.1 20.9
2018-Apr-15 00:00S 34°19' W 142°38'0 0.0 1018.1 20.9
2018-Apr-14 23:00S 34°19' W 142°38'4 0.8 1018.7 20.9
2018-Apr-14 18:00S 34°16' W 142°36'1 0.8 1019.1 20.8
2018-Apr-14 17:00S 34°15' W 142°35'0 0.0 1019.1 20.8
2018-Apr-14 16:00S 34°15' W 142°35'1 0.8 1019.4 20.8
2018-Apr-14 15:00S 34°14' W 142°35'0 0.0 1019.0 20.8
2018-Apr-14 14:00S 34°14' W 142°35'0 0.0 1018.9 20.8
2018-Apr-14 13:00S 34°14' W 142°35'0 0.0 1019.0 20.8
2018-Apr-14 12:00S 34°14' W 142°35'0 0.0 1018.5 20.8
2018-Apr-14 11:00S 34°14' W 142°35'1 0.4 1018.8 20.8
2018-Apr-14 08:00S 34°14' W 142°36'1 0.8 1018.8 20.8
2018-Apr-14 07:00S 34°13' W 142°35'0 0.0 1019.0 20.8
2018-Apr-14 06:00S 34°13' W 142°35'1 0.6 1019.1 20.8
2018-Apr-14 05:00S 34°13' W 142°35'1 0.6 1018.3 20.9
2018-Apr-14 04:00S 34°12' W 142°35'0 0.5 1018.0 20.9
2018-Apr-14 03:00S 34°12' W 142°35'1 0.8 1017.6 20.9
2018-Apr-14 02:00S 34°11' W 142°34'1 0.8 1017.1 20.9
2018-Apr-14 01:00S 34°11' W 142°34'3 3.5 1016.7 21.0
2018-Apr-14 00:00S 34°09' W 142°30'0 0.0 1016.5 21.0
2018-Apr-13 23:00S 34°09' W 142°30'1 0.2 1016.8 21.0
2018-Apr-13 19:00S 34°10' W 142°29'0 0.5 1018.1 20.9
2018-Apr-13 18:00S 34°10' W 142°29'0 0.5 1017.9 20.8
2018-Apr-13 17:00S 34°10' W 142°28'0 0.5 1017.5 20.8
2018-Apr-13 16:00S 34°10' W 142°28'1 1.2 1017.0 20.8
2018-Apr-13 15:00S 34°10' W 142°26'1 0.6 1016.6 20.8
2018-Apr-13 14:00S 34°10' W 142°26'0 0.0 1016.9 20.8
2018-Apr-13 13:00S 34°10' W 142°26'1 1.0 1016.7 20.7
2018-Apr-13 12:00S 34°10' W 142°25'1 0.8 1017.4 20.6
2018-Apr-13 11:00S 34°09' W 142°26'3 1.0 1017.9 20.6
2018-Apr-13 08:00S 34°10' W 142°22'1 1.5 1019.1 20.7
2018-Apr-13 07:00S 34°10' W 142°20'0 0.5 1019.7 20.7
2018-Apr-13 06:00S 34°10' W 142°20'0 0.5 1020.2 20.7
2018-Apr-13 05:00S 34°10' W 142°19'3 2.6 1020.6 20.7
2018-Apr-13 04:00S 34°09' W 142°16'0 0.0 1020.2 20.7
2018-Apr-13 03:00S 34°09' W 142°16'2 2.0 1020.1 20.7
2018-Apr-13 02:00S 34°09' W 142°14'0 0.0 1019.8 20.7
2018-Apr-13 01:00S 34°09' W 142°14'0 0.5 1019.8 20.7
2018-Apr-13 00:00S 34°09' W 142°13'0 0.0 1020.4 20.7
2018-Apr-12 23:00S 34°09' W 142°13'7 1.4 1020.8 20.7
2018-Apr-12 18:00S 34°10' W 142°05'1 1.2 1022.6 20.7
2018-Apr-12 17:00S 34°11' W 142°05'2 2.0 1022.6 20.7
2018-Apr-12 16:00S 34°11' W 142°02'1 1.5 1022.4 20.7
2018-Apr-12 15:00S 34°11' W 142°04'2 2.5 1021.8 20.8
2018-Apr-12 14:00S 34°11' W 142°01'0 0.0 1021.3 20.8
2018-Apr-12 13:00S 34°11' W 142°01'5 4.6 1021.0 20.9
2018-Apr-12 12:00S 34°12' W 141°56'0 0.0 1020.8 20.9
2018-Apr-12 11:00S 34°12' W 141°56'1 0.4 1021.0 20.9
2018-Apr-12 08:00S 34°11' W 141°55'0 0.0 1021.1 21.0
2018-Apr-12 07:00S 34°11' W 141°55'1 1.2 1021.1 21.0
2018-Apr-12 06:00S 34°12' W 141°53'1 0.8 1021.2 21.0
2018-Apr-12 05:00S 34°11' W 141°53'3 2.6 1020.7 21.1
2018-Apr-12 04:00S 34°12' W 141°50'0 0.0 1020.4 21.1
2018-Apr-12 03:00S 34°12' W 141°50'2 2.1 1020.0 21.1
2018-Apr-12 02:00S 34°13' W 141°47'0 0.0 1019.6 21.1
2018-Apr-12 01:00S 34°13' W 141°47'0 0.5 1018.6 21.1
2018-Apr-12 00:00S 34°13' W 141°48'8 1.4 1018.7 21.0
2018-Apr-11 18:00S 34°13' W 141°38'3 2.8 1018.5 20.7
2018-Apr-11 17:00S 34°14' W 141°35'0 0.0 1018.1 20.7
2018-Apr-11 16:00S 34°14' W 141°35'3 2.6 1018.0 20.7
2018-Apr-11 15:00S 34°15' W 141°32'2 2.1 1017.0 20.7
2018-Apr-11 14:00S 34°17' W 141°31'0 0.0 1016.1 20.8
2018-Apr-11 13:00S 34°17' W 141°31'0 0.5 1016.1 20.8
2018-Apr-11 12:00S 34°17' W 141°30'4 4.3 1016.1 20.8
2018-Apr-11 11:00S 34°21' W 141°29'1 0.4 1014.6 20.9
2018-Apr-11 08:00S 34°20' W 141°28'2 1.9 1016.3 20.9
2018-Apr-11 07:00S 34°22' W 141°27'0 0.0 1016.1 20.9
2018-Apr-11 06:00S 34°22' W 141°27'1 1.0 1015.9 20.9
2018-Apr-11 05:00S 34°22' W 141°26'1 1.3 1015.2 20.9
2018-Apr-11 04:00S 34°23' W 141°26'1 0.6 1014.7 20.9
2018-Apr-11 03:00S 34°24' W 141°26'1 0.8 1014.2 20.9
2018-Apr-11 02:00S 34°25' W 141°26'1 1.2 1014.1 20.9
2018-Apr-11 01:00S 34°25' W 141°27'1 0.6 1014.2 21.0
2018-Apr-11 00:00S 34°25' W 141°27'4 0.7 1014.4 21.0
2018-Apr-10 19:00S 34°28' W 141°27'1 0.8 1016.5 21.0
2018-Apr-10 18:00S 34°29' W 141°28'1 0.6 1017.0 21.0
2018-Apr-10 17:00S 34°29' W 141°28'0 0.0 1016.8 21.0
2018-Apr-10 16:00S 34°29' W 141°28'1 1.3 1016.5 21.0
2018-Apr-10 15:00S 34°31' W 141°27'0 0.5 1016.1 21.0
2018-Apr-10 14:00S 34°31' W 141°28'1 1.2 1016.0 21.0
2018-Apr-10 13:00S 34°32' W 141°28'4 3.6 1015.9 21.0
2018-Apr-10 12:00S 34°35' W 141°30'0 0.0 1015.8 21.0
2018-Apr-10 11:00S 34°35' W 141°30'0 0.0 1015.9 21.0
2018-Apr-10 08:00S 34°35' W 141°30'0 0.0 1016.0 21.0
2018-Apr-10 07:00S 34°35' W 141°30'0 0.2 1016.4 21.1
2018-Apr-10 05:00S 34°35' W 141°31'1 1.0 1015.6 21.1
2018-Apr-10 04:00S 34°35' W 141°32'1 1.3 1015.0 21.1
2018-Apr-10 03:00S 34°36' W 141°31'0 0.5 1014.3 21.1
2018-Apr-10 02:00S 34°36' W 141°31'1 0.8 1013.7 21.2
2018-Apr-10 01:00S 34°37' W 141°31'2 2.4 1013.4 21.2
2018-Apr-10 00:00S 34°39' W 141°31'0 0.0 1013.2 21.2
2018-Apr-09 20:00S 34°39' W 141°31'0 0.0 1013.9 21.0
2018-Apr-09 19:00S 34°39' W 141°31'   1013.6 21.0

Dump ship's entire track history